Time;durP1;ratioP1;P1;durP2;ratioP2;P2;SDS_P1;SDS_P2;PMS_P1;PMS_P2;Temp;Humidity;BMP_temperature;BMP_pressure;BME280_temperature;BME280_humidity;BME280_pressure;Samples;Min_cycle;Max_cycle;Signal;HPM_P1;HPM_P2
2022/12/12 00:01:36;;;;;;;7.88;3.60;;;15.80;63.70;;;;;;5101906;28;20052;-63
2022/12/12 00:04:02;;;;;;;5.70;3.55;;;15.80;63.60;;;;;;5101896;28;20016;-62
2022/12/12 00:06:28;;;;;;;4.88;3.40;;;15.80;63.20;;;;;;5101928;28;20016;-63
2022/12/12 00:08:54;;;;;;;4.65;3.45;;;15.70;63.70;;;;;;5101781;28;20079;-63
2022/12/12 00:11:21;;;;;;;7.22;3.25;;;15.70;63.50;;;;;;5101738;28;20023;-63
2022/12/12 00:13:47;;;;;;;4.57;3.30;;;15.70;63.50;;;;;;5101744;28;20016;-62
2022/12/12 00:16:13;;;;;;;5.05;3.40;;;15.70;63.30;;;;;;5101679;28;20181;-63
2022/12/12 00:18:40;;;;;;;3.70;2.90;;;15.70;63.40;;;;;;5101416;28;20052;-65
2022/12/12 00:21:12;;;;;;;4.75;3.08;;;15.70;63.50;;;;;;5101693;28;20047;-64
2022/12/12 00:23:38;;;;;;;6.47;3.10;;;15.70;63.60;;;;;;5101694;28;20069;-64
2022/12/12 00:26:07;;;;;;;4.93;3.17;;;15.60;63.80;;;;;;5102951;28;20023;-62
2022/12/12 00:28:33;;;;;;;6.50;3.17;;;15.60;63.40;;;;;;5105316;28;20027;-63
2022/12/12 00:30:59;;;;;;;5.43;3.58;;;15.60;63.80;;;;;;5105308;28;20028;-64
2022/12/12 00:33:25;;;;;;;4.18;3.30;;;15.60;63.80;;;;;;5104013;28;20023;-63
2022/12/12 00:35:54;;;;;;;3.97;3.00;;;15.60;63.60;;;;;;5105173;28;20019;-64
2022/12/12 00:38:23;;;;;;;5.63;3.13;;;15.50;63.80;;;;;;5105091;28;20087;-63
2022/12/12 00:40:54;;;;;;;7.03;4.25;;;15.50;64.20;;;;;;5105106;28;20039;-63
2022/12/12 00:43:20;;;;;;;7.50;3.67;;;15.50;63.70;;;;;;5105059;28;20012;-63
2022/12/12 00:45:45;;;;;;;4.95;3.22;;;15.50;64.00;;;;;;5105037;28;20083;-64
2022/12/12 00:48:11;;;;;;;6.45;3.70;;;15.50;64.60;;;;;;5104964;28;20219;-63
2022/12/12 00:50:37;;;;;;;4.72;3.05;;;15.50;63.60;;;;;;5103793;28;20016;-63
2022/12/12 00:53:03;;;;;;;4.78;3.15;;;15.50;64.00;;;;;;5104965;28;20358;-63
2022/12/12 00:55:28;;;;;;;6.32;3.90;;;15.50;63.80;;;;;;5104805;28;20091;-65
2022/12/12 00:57:54;;;;;;;4.75;3.22;;;15.50;64.10;;;;;;5103544;28;20027;-62
2022/12/12 01:00:20;;;;;;;5.72;3.83;;;15.50;63.70;;;;;;5104640;28;20012;-63
2022/12/12 01:02:46;;;;;;;4.97;3.28;;;15.40;63.70;;;;;;5104706;28;20306;-63
2022/12/12 01:05:13;;;;;;;4.53;3.17;;;15.50;63.90;;;;;;5104512;28;20296;-62
2022/12/12 01:07:40;;;;;;;5.45;3.72;;;15.50;63.80;;;;;;5104509;28;20211;-63
2022/12/12 01:10:07;;;;;;;5.15;3.20;;;15.50;63.70;;;;;;5104539;28;20030;-63
2022/12/12 01:12:33;;;;;;;5.78;3.60;;;15.50;64.20;;;;;;5104435;28;20023;-62
2022/12/12 01:14:59;;;;;;;7.78;3.63;;;15.40;63.80;;;;;;5104387;28;20026;-63
2022/12/12 01:17:24;;;;;;;4.47;3.00;;;15.40;63.70;;;;;;5104170;28;20011;-64
2022/12/12 01:19:50;;;;;;;5.60;3.15;;;15.40;64.00;;;;;;5104314;28;20012;-62
2022/12/12 01:22:16;;;;;;;4.57;3.28;;;15.40;64.10;;;;;;5104299;28;20020;-63
2022/12/12 01:24:42;;;;;;;6.57;3.65;;;15.40;64.10;;;;;;5104191;28;20288;-64
2022/12/12 01:27:08;;;;;;;4.57;2.80;;;15.40;64.60;;;;;;5104191;28;20311;-65
2022/12/12 01:29:34;;;;;;;4.85;3.17;;;15.40;64.10;;;;;;5104114;28;20023;-64
2022/12/12 01:32:00;;;;;;;3.45;3.03;;;15.40;64.00;;;;;;5104119;28;20091;-63
2022/12/12 01:34:26;;;;;;;6.07;2.95;;;15.40;63.70;;;;;;5104101;28;20020;-62
2022/12/12 01:36:52;;;;;;;5.47;3.45;;;15.40;64.00;;;;;;5103945;28;20250;-63
2022/12/12 01:39:17;;;;;;;4.50;3.15;;;15.40;63.80;;;;;;5103890;28;20020;-63
2022/12/12 01:41:43;;;;;;;3.85;3.35;;;15.40;63.60;;;;;;5103840;28;20023;-63
2022/12/12 01:44:37;;;;;;;4.53;3.35;;;15.40;63.50;;;;;;5103850;28;20047;-65
2022/12/12 01:47:03;;;;;;;3.67;3.15;;;15.40;64.10;;;;;;5098643;28;20370;-63
2022/12/12 01:49:30;;;;;;;7.45;3.45;;;15.40;63.50;;;;;;5103734;28;20071;-63
2022/12/12 01:52:02;;;;;;;6.35;3.28;;;15.40;63.30;;;;;;5103598;28;20019;-63
2022/12/12 01:54:38;;;;;;;4.20;3.20;;;15.40;63.40;;;;;;5103943;28;20312;-62
2022/12/12 01:57:07;;;;;;;6.45;3.15;;;15.40;63.40;;;;;;5103612;28;20028;-62
2022/12/12 01:59:35;;;;;;;4.03;2.97;;;15.40;63.50;;;;;;5103505;28;20016;-64
2022/12/12 02:02:01;;;;;;;3.92;2.90;;;15.40;63.50;;;;;;5103521;28;20122;-66
2022/12/12 02:04:27;;;;;;;5.30;3.42;;;15.30;63.60;;;;;;5103419;28;20219;-63
2022/12/12 02:06:54;;;;;;;5.72;3.63;;;15.40;63.60;;;;;;5103431;28;20296;-63
2022/12/12 02:09:21;;;;;;;6.00;3.40;;;15.30;63.80;;;;;;5103441;28;20339;-63
2022/12/12 02:11:50;;;;;;;3.42;2.88;;;15.30;63.60;;;;;;5103332;28;20024;-63
2022/12/12 02:14:27;;;;;;;5.03;3.55;;;15.30;63.80;;;;;;5103353;28;20311;-64
2022/12/12 02:17:07;;;;;;;4.05;3.10;;;15.30;63.90;;;;;;5103344;28;20299;-63
2022/12/12 02:19:52;;;;;;;4.57;3.10;;;15.30;63.80;;;;;;5103144;28;20043;-63
2022/12/12 02:22:27;;;;;;;4.40;3.05;;;15.30;64.00;;;;;;5103245;28;20023;-63
2022/12/12 02:25:17;;;;;;;4.03;3.28;;;15.30;64.10;;;;;;5103164;28;20058;-63
2022/12/12 02:28:09;;;;;;;4.68;3.13;;;15.20;64.00;;;;;;5103194;28;20015;-63
2022/12/12 02:30:42;;;;;;;4.65;3.33;;;15.30;64.00;;;;;;5103092;28;20026;-63
2022/12/12 02:33:29;;;;;;;3.03;2.72;;;15.20;63.80;;;;;;5102976;28;20035;-63
2022/12/12 02:36:18;;;;;;;4.38;3.15;;;15.20;64.30;;;;;;5102968;28;20016;-63
2022/12/12 02:39:07;;;;;;;5.10;3.25;;;15.20;63.90;;;;;;5102803;28;20041;-63
2022/12/12 02:41:59;;;;;;;4.40;2.75;;;15.20;63.90;;;;;;5102877;28;20011;-63
2022/12/12 02:44:34;;;;;;;5.35;4.15;;;15.20;63.90;;;;;;5102739;28;20031;-63
2022/12/12 02:47:15;;;;;;;3.92;3.30;;;15.20;64.00;;;;;;5101598;28;20040;-63
2022/12/12 02:49:50;;;;;;;6.03;3.63;;;15.10;63.80;;;;;;5102289;28;20020;-62
2022/12/12 02:52:17;;;;;;;13.50;3.28;;;15.10;64.20;;;;;;5102642;28;20031;-64
2022/12/12 02:54:43;;;;;;;4.13;2.90;;;15.10;63.70;;;;;;5102655;28;20303;-63
2022/12/12 02:57:20;;;;;;;5.05;3.40;;;15.10;63.80;;;;;;5102557;28;20030;-62
2022/12/12 02:59:55;;;;;;;3.80;2.95;;;15.10;64.20;;;;;;5102561;28;20027;-63
2022/12/12 03:02:42;;;;;;;5.35;3.33;;;15.10;64.30;;;;;;5102517;28;20012;-65
2022/12/12 03:08:30;;;;;;;4.85;3.22;;;15.20;63.80;;;;;;5093800;28;20240;-62
2022/12/12 03:10:57;;;;;;;5.57;3.33;;;15.20;63.60;;;;;;5102400;28;20035;-65
2022/12/12 03:13:42;;;;;;;4.68;2.88;;;15.20;64.00;;;;;;5102407;28;20023;-64
2022/12/12 03:16:18;;;;;;;4.47;2.90;;;15.20;64.00;;;;;;5102331;28;20342;-62
2022/12/12 03:18:55;;;;;;;4.60;3.15;;;15.30;64.00;;;;;;5102030;28;20044;-63
2022/12/12 03:21:44;;;;;;;3.17;2.88;;;15.20;63.70;;;;;;5102318;28;20059;-65
2022/12/12 03:24:23;;;;;;;4.40;3.00;;;15.20;63.80;;;;;;5102293;28;20016;-64
2022/12/12 03:26:59;;;;;;;4.20;3.03;;;15.20;63.50;;;;;;5102254;28;20022;-62
2022/12/12 03:29:31;;;;;;;5.25;3.17;;;15.20;63.50;;;;;;5102170;28;20021;-63
2022/12/12 03:32:02;;;;;;;3.90;2.92;;;15.20;63.60;;;;;;5102221;28;20216;-64
2022/12/12 03:34:41;;;;;;;3.58;2.80;;;15.20;63.50;;;;;;5102176;28;20083;-63
2022/12/12 03:37:24;;;;;;;5.68;3.17;;;15.20;63.50;;;;;;5102122;28;20035;-63
2022/12/12 03:40:05;;;;;;;5.93;3.25;;;15.10;63.50;;;;;;5102087;28;20022;-62
2022/12/12 03:42:46;;;;;;;5.10;3.30;;;15.10;63.50;;;;;;5102120;28;20205;-62
2022/12/12 03:45:26;;;;;;;4.70;3.50;;;15.10;63.50;;;;;;5102109;28;20013;-62
2022/12/12 03:48:18;;;;;;;4.88;3.45;;;15.00;63.40;;;;;;5102094;28;20008;-64
2022/12/12 03:50:49;;;;;;;6.10;3.50;;;14.90;64.10;;;;;;5102011;28;20079;-63
2022/12/12 03:53:31;;;;;;;4.78;3.35;;;14.90;63.90;;;;;;5102002;28;20070;-63
2022/12/12 03:56:14;;;;;;;3.83;2.60;;;14.90;63.80;;;;;;5101964;28;20089;-63
2022/12/12 03:58:46;;;;;;;3.58;2.83;;;14.90;64.00;;;;;;5101804;28;20308;-63
2022/12/12 04:01:14;;;;;;;4.32;3.17;;;14.90;64.00;;;;;;5103500;28;20216;-62
2022/12/12 04:04:01;;;;;;;5.75;3.50;;;14.90;64.30;;;;;;5105886;28;20018;-64
2022/12/12 04:06:27;;;;;;;4.75;3.10;;;14.90;64.00;;;;;;5105788;28;20097;-64
2022/12/12 04:15:40;;;;;;;4.32;3.28;;;14.90;64.40;;;;;;5105668;28;20053;-62
2022/12/12 04:18:11;;;;;;;3.50;2.47;;;14.90;63.70;;;;;;5104096;28;20040;-63
2022/12/12 04:23:58;;;;;;;4.88;3.50;;;14.80;63.10;;;;;;5102074;28;20023;-63
2022/12/12 04:26:39;;;;;;;4.10;2.85;;;14.70;63.70;;;;;;5105447;28;20021;-62
2022/12/12 04:29:46;;;;;;;3.58;2.67;;;14.70;64.40;;;;;;5105467;28;20020;-62
2022/12/12 04:32:21;;;;;;;4.43;3.20;;;14.80;63.60;;;;;;5099534;28;20027;-64
2022/12/12 04:34:50;;;;;;;4.82;3.08;;;14.80;64.20;;;;;;5105263;28;20244;-63
2022/12/12 04:37:20;;;;;;;3.50;2.63;;;14.80;63.60;;;;;;5105253;28;20020;-63
2022/12/12 04:39:50;;;;;;;3.65;3.17;;;14.80;63.80;;;;;;5105188;28;20070;-63
2022/12/12 04:42:21;;;;;;;5.28;3.35;;;14.70;63.80;;;;;;5105035;28;20012;-63
2022/12/12 04:44:49;;;;;;;4.72;2.95;;;14.70;63.40;;;;;;5105098;28;20128;-63
2022/12/12 04:47:16;;;;;;;4.25;2.78;;;14.70;63.40;;;;;;5104973;28;20043;-64
2022/12/12 04:49:45;;;;;;;3.55;2.97;;;14.70;64.20;;;;;;5104999;28;20069;-63
2022/12/12 04:52:13;;;;;;;4.18;2.55;;;14.70;63.80;;;;;;5104957;28;20326;-62
2022/12/12 04:54:42;;;;;;;4.22;2.92;;;14.70;64.00;;;;;;5104897;28;20311;-63
2022/12/12 04:57:12;;;;;;;4.30;2.80;;;14.80;64.30;;;;;;5104853;28;20031;-62
2022/12/12 04:59:38;;;;;;;5.10;3.30;;;14.80;63.80;;;;;;5104682;28;20029;-62
2022/12/12 05:02:29;;;;;;;2.97;2.65;;;14.80;63.90;;;;;;5104676;28;20327;-64
2022/12/12 05:05:10;;;;;;;4.85;3.08;;;14.80;63.60;;;;;;5104713;28;20075;-62
2022/12/12 05:07:42;;;;;;;4.68;2.97;;;14.80;63.70;;;;;;5104682;28;20016;-63
2022/12/12 05:10:15;;;;;;;4.47;2.92;;;14.80;63.60;;;;;;5104652;28;20020;-62
2022/12/12 05:12:50;;;;;;;3.95;3.28;;;14.80;63.30;;;;;;5104259;28;20016;-62
2022/12/12 05:15:18;;;;;;;5.13;3.38;;;14.70;63.60;;;;;;5104526;28;20038;-63
2022/12/12 05:18:00;;;;;;;4.38;3.45;;;14.70;63.80;;;;;;5104366;28;20078;-64
2022/12/12 05:20:26;;;;;;;3.88;3.15;;;14.70;64.10;;;;;;5104260;28;20112;-63
2022/12/12 05:22:52;;;;;;;3.63;2.63;;;14.70;63.70;;;;;;5104317;28;20304;-62
2022/12/12 05:25:17;;;;;;;4.60;3.45;;;14.70;63.80;;;;;;5104245;28;20019;-63
2022/12/12 05:27:43;;;;;;;3.38;2.60;;;14.70;63.60;;;;;;5104222;28;20312;-62
2022/12/12 05:30:10;;;;;;;5.53;3.22;;;14.70;63.40;;;;;;5104209;28;20046;-64
2022/12/12 05:32:36;;;;;;;3.80;3.28;;;14.70;63.20;;;;;;5104001;28;20015;-63
2022/12/12 05:35:04;;;;;;;4.47;2.80;;;14.70;63.50;;;;;;5104036;28;20159;-63
2022/12/12 05:37:30;;;;;;;3.60;2.70;;;14.70;63.50;;;;;;5103963;28;20032;-62
2022/12/12 05:39:56;;;;;;;3.45;2.60;;;14.70;63.50;;;;;;5103927;28;20028;-63
2022/12/12 05:42:22;;;;;;;5.60;3.03;;;14.80;64.50;;;;;;5103921;28;20220;-62
2022/12/12 05:44:47;;;;;;;4.18;2.92;;;14.70;64.00;;;;;;5103882;28;20024;-63
2022/12/12 05:47:13;;;;;;;3.10;2.67;;;14.80;64.20;;;;;;5103892;28;20238;-62
2022/12/12 05:49:39;;;;;;;5.00;3.45;;;14.70;64.20;;;;;;5103774;28;20273;-63
2022/12/12 05:52:05;;;;;;;4.43;2.72;;;14.80;64.00;;;;;;5103760;28;20039;-63
2022/12/12 05:54:31;;;;;;;4.30;3.58;;;14.70;63.00;;;;;;5103741;28;20039;-63
2022/12/12 05:56:56;;;;;;;3.53;2.85;;;14.70;63.60;;;;;;5103751;28;20027;-62
2022/12/12 05:59:22;;;;;;;3.38;2.72;;;14.70;63.90;;;;;;5103596;28;20114;-62
2022/12/12 06:01:48;;;;;;;3.97;2.85;;;14.70;64.00;;;;;;5103514;28;20012;-62
2022/12/12 06:04:14;;;;;;;4.15;2.67;;;14.70;63.60;;;;;;5103539;28;20031;-63
2022/12/12 06:06:40;;;;;;;4.82;3.55;;;14.60;63.30;;;;;;5103497;28;20083;-63
2022/12/12 06:09:05;;;;;;;4.22;3.50;;;14.50;63.60;;;;;;5103349;28;20032;-62
2022/12/12 06:11:31;;;;;;;3.95;2.78;;;14.60;63.70;;;;;;5103324;28;20323;-63
2022/12/12 06:13:57;;;;;;;3.28;2.80;;;14.60;63.60;;;;;;5103391;28;20077;-64
2022/12/12 06:16:23;;;;;;;4.05;3.33;;;14.50;63.50;;;;;;5103317;28;20020;-62
2022/12/12 06:18:54;;;;;;;5.68;3.50;;;14.40;63.80;;;;;;5103033;28;20036;-63
2022/12/12 06:21:20;;;;;;;3.83;2.90;;;14.30;64.00;;;;;;5103182;28;20214;-63
2022/12/12 06:23:46;;;;;;;3.90;2.58;;;14.30;64.00;;;;;;5101224;28;20091;-64
2022/12/12 06:26:15;;;;;;;2.90;2.40;;;14.30;64.20;;;;;;5103117;28;20016;-62
2022/12/12 06:28:41;;;;;;;4.15;3.25;;;14.20;64.20;;;;;;5103153;28;20027;-62
2022/12/12 06:31:08;;;;;;;4.90;3.15;;;14.20;64.40;;;;;;5102918;28;20027;-62
2022/12/12 06:33:34;;;;;;;3.45;2.72;;;14.20;64.20;;;;;;5103005;28;20050;-62
2022/12/12 06:36:13;;;;;;;5.63;3.10;;;14.20;64.60;;;;;;5102914;28;20023;-63
2022/12/12 06:38:39;;;;;;;3.97;3.05;;;14.20;64.30;;;;;;5102808;28;20020;-63
2022/12/12 06:41:07;;;;;;;4.05;3.08;;;14.20;64.40;;;;;;5102909;28;20338;-63
2022/12/12 06:43:33;;;;;;;4.65;3.40;;;14.10;64.30;;;;;;5102875;28;20114;-63
2022/12/12 06:46:03;;;;;;;4.20;3.05;;;14.10;64.90;;;;;;5102751;28;20012;-63
2022/12/12 06:48:30;;;;;;;3.90;2.95;;;14.10;64.50;;;;;;5102728;28;20307;-63
2022/12/12 06:50:56;;;;;;;3.60;2.83;;;14.20;64.40;;;;;;5101651;28;20031;-64
2022/12/12 06:53:22;;;;;;;3.72;2.88;;;14.20;64.40;;;;;;5102640;28;20413;-63
2022/12/12 06:55:48;;;;;;;3.83;3.03;;;14.20;64.20;;;;;;5102694;28;20028;-63
2022/12/12 06:58:14;;;;;;;4.72;3.25;;;14.30;64.10;;;;;;5102446;28;20023;-65
2022/12/12 07:00:40;;;;;;;5.25;3.42;;;14.40;63.70;;;;;;5101300;28;20044;-64
2022/12/12 07:03:06;;;;;;;4.72;2.92;;;14.40;63.70;;;;;;5102475;28;20012;-64
2022/12/12 07:05:32;;;;;;;4.13;2.70;;;14.40;63.80;;;;;;5102468;28;20031;-63
2022/12/12 07:08:01;;;;;;;3.67;3.05;;;14.30;63.80;;;;;;5102389;28;20040;-61
2022/12/12 07:10:29;;;;;;;5.97;3.33;;;14.30;63.80;;;;;;5102466;28;20046;-63
2022/12/12 07:12:55;;;;;;;4.90;3.03;;;14.30;64.10;;;;;;5102469;28;20023;-64
2022/12/12 07:15:21;;;;;;;4.32;2.97;;;14.20;64.10;;;;;;5102319;28;20204;-64
2022/12/12 07:17:47;;;;;;;4.30;3.20;;;14.20;64.40;;;;;;5101820;28;20101;-64
2022/12/12 07:20:12;;;;;;;4.38;3.20;;;14.10;64.40;;;;;;5102277;28;20043;-62
2022/12/12 07:22:38;;;;;;;3.83;2.58;;;14.10;64.70;;;;;;5102380;28;20075;-64
2022/12/12 07:25:06;;;;;;;4.95;3.03;;;14.10;64.60;;;;;;5102283;28;20016;-62
2022/12/12 07:27:32;;;;;;;3.43;2.77;;;14.10;64.70;;;;;;5102326;28;20031;-63
2022/12/12 07:29:58;;;;;;;3.78;2.85;;;14.10;64.50;;;;;;5102143;28;20024;-61
2022/12/12 07:32:24;;;;;;;4.47;3.22;;;14.20;64.50;;;;;;5102272;28;20024;-64
2022/12/12 07:34:49;;;;;;;4.38;3.03;;;14.10;64.50;;;;;;5103204;28;20016;-62
2022/12/12 07:37:15;;;;;;;3.30;2.70;;;14.20;64.20;;;;;;5106359;28;20020;-62
2022/12/12 07:39:41;;;;;;;3.88;3.05;;;14.30;64.50;;;;;;5106210;28;20085;-63
2022/12/12 07:42:07;;;;;;;3.67;2.75;;;14.30;64.10;;;;;;5106257;28;20020;-62
2022/12/12 07:44:33;;;;;;;4.55;3.03;;;14.20;64.50;;;;;;5106225;28;20053;-63
2022/12/12 07:46:58;;;;;;;3.58;2.85;;;14.30;64.20;;;;;;5106239;28;20020;-62
2022/12/12 07:49:24;;;;;;;4.32;3.03;;;14.30;63.80;;;;;;5106190;28;20027;-62
2022/12/12 07:51:50;;;;;;;3.70;2.70;;;14.20;64.00;;;;;;5106134;28;20364;-64
2022/12/12 07:54:16;;;;;;;7.65;3.30;;;14.20;63.90;;;;;;5106119;28;20015;-62
2022/12/12 07:56:42;;;;;;;3.75;2.97;;;14.20;63.90;;;;;;5106026;28;20079;-62
2022/12/12 07:59:08;;;;;;;3.58;2.65;;;14.30;63.80;;;;;;5105880;28;20028;-64
2022/12/12 08:01:33;;;;;;;5.53;2.92;;;14.30;63.80;;;;;;5105879;28;20058;-63
2022/12/12 08:03:59;;;;;;;4.40;3.00;;;14.30;63.60;;;;;;5105887;28;20020;-64
2022/12/12 08:06:25;;;;;;;3.40;2.70;;;14.30;63.40;;;;;;5105844;28;20319;-62
2022/12/12 08:08:52;;;;;;;3.13;2.65;;;14.40;63.80;;;;;;5105793;28;20040;-62
2022/12/12 08:11:21;;;;;;;4.80;2.75;;;14.40;63.60;;;;;;5105737;28;20345;-62
2022/12/12 08:13:47;;;;;;;3.55;2.72;;;14.40;64.10;;;;;;5105676;28;20024;-67
2022/12/12 08:16:17;;;;;;;4.05;2.78;;;14.50;63.80;;;;;;5105576;28;20211;-64
2022/12/12 08:18:43;;;;;;;3.42;2.60;;;14.50;63.40;;;;;;5105370;28;20047;-62
2022/12/12 08:21:11;;;;;;;4.13;2.58;;;14.40;63.60;;;;;;5105656;28;20035;-63
2022/12/12 08:23:38;;;;;;;2.72;2.05;;;14.50;63.50;;;;;;5105534;28;20024;-65
2022/12/12 08:26:07;;;;;;;2.80;2.20;;;14.50;63.60;;;;;;5105449;28;20258;-63
2022/12/12 08:28:33;;;;;;;;;;;14.50;64.40;;;;;;5105844;28;20020;-63
2022/12/12 08:30:59;;;;;;;3.47;2.40;;;14.50;63.30;;;;;;5105468;28;19939;-65
2022/12/12 08:33:25;;;;;;;2.85;2.45;;;14.60;64.30;;;;;;5105368;28;20019;-63
2022/12/12 08:35:51;;;;;;;2.47;2.13;;;14.50;63.20;;;;;;5104077;28;20031;-64
2022/12/12 08:38:17;;;;;;;2.55;2.13;;;14.50;63.60;;;;;;5105164;28;20016;-63
2022/12/12 08:40:43;;;;;;;3.35;2.40;;;14.50;63.90;;;;;;5105228;28;20020;-63
2022/12/12 08:43:09;;;;;;;3.55;2.47;;;14.60;64.10;;;;;;5105156;28;20327;-64
2022/12/12 08:45:37;;;;;;;3.30;2.50;;;14.50;63.30;;;;;;5105078;28;20019;-65
2022/12/12 08:48:03;;;;;;;3.35;2.63;;;14.50;63.70;;;;;;5103221;28;20020;-63
2022/12/12 08:50:29;;;;;;;3.90;2.40;;;14.60;63.20;;;;;;5104941;28;20034;-63
2022/12/12 08:52:55;;;;;;;3.47;2.58;;;14.50;64.60;;;;;;5104986;28;20036;-63
2022/12/12 08:55:21;;;;;;;2.60;2.40;;;14.60;63.20;;;;;;5104984;28;20249;-63
2022/12/12 08:57:47;;;;;;;5.10;2.90;;;14.60;63.60;;;;;;5104854;28;20032;-63
2022/12/12 09:00:13;;;;;;;2.83;2.35;;;14.60;63.10;;;;;;5104735;28;20027;-63
2022/12/12 09:02:39;;;;;;;2.88;2.47;;;14.60;63.20;;;;;;5104746;28;20630;-63
2022/12/12 09:05:05;;;;;;;3.80;3.00;;;14.60;63.70;;;;;;5104743;28;20031;-63
2022/12/12 09:07:31;;;;;;;3.15;2.58;;;14.70;63.10;;;;;;5104641;28;20019;-63
2022/12/12 09:09:57;;;;;;;2.58;2.03;;;14.70;64.00;;;;;;5104573;28;20024;-63
2022/12/12 09:12:22;;;;;;;2.90;2.60;;;14.70;63.70;;;;;;5104539;28;20083;-63
2022/12/12 09:14:48;;;;;;;3.75;2.33;;;14.80;63.90;;;;;;5104514;28;20212;-63
2022/12/12 09:17:14;;;;;;;3.05;2.42;;;14.80;63.50;;;;;;5104488;28;20024;-63
2022/12/12 09:19:40;;;;;;;3.35;2.65;;;14.80;62.90;;;;;;5104144;28;20075;-66
2022/12/12 09:22:05;;;;;;;2.95;2.65;;;14.80;62.60;;;;;;5104337;28;20023;-63
2022/12/12 09:24:34;;;;;;;3.28;2.60;;;14.80;63.10;;;;;;5104347;28;20204;-63
2022/12/12 09:27:00;;;;;;;;;;;14.70;63.30;;;;;;5104715;28;20023;-64
2022/12/12 09:29:26;;;;;;;3.00;2.55;;;14.80;64.20;;;;;;5104243;28;19900;-65
2022/12/12 09:31:52;;;;;;;2.72;2.15;;;14.70;63.10;;;;;;5104115;28;20020;-65
2022/12/12 09:34:17;;;;;;;4.53;2.67;;;14.70;63.60;;;;;;5104139;28;20027;-63
2022/12/12 09:36:43;;;;;;;3.40;2.80;;;14.90;62.90;;;;;;5104087;28;20062;-64
2022/12/12 09:39:09;;;;;;;3.05;2.75;;;14.90;62.30;;;;;;5104014;28;20015;-64
2022/12/12 09:41:35;;;;;;;3.20;2.28;;;14.90;62.80;;;;;;5103971;28;20032;-63
2022/12/12 09:44:10;;;;;;;3.72;2.38;;;14.90;62.90;;;;;;5103955;28;20023;-64
2022/12/12 09:47:07;;;;;;;2.63;2.10;;;14.80;62.30;;;;;;5103848;28;20024;-63
2022/12/12 09:49:54;;;;;;;2.88;2.33;;;14.80;62.60;;;;;;5101678;28;20035;-65
2022/12/12 09:52:32;;;;;;;2.85;2.00;;;14.80;62.10;;;;;;5103775;28;20024;-63
2022/12/12 09:54:59;;;;;;;3.42;2.42;;;14.90;63.40;;;;;;5103790;28;20024;-63
2022/12/12 09:57:49;;;;;;;2.65;2.33;;;14.90;62.80;;;;;;5103637;28;20226;-63
2022/12/12 10:00:17;;;;;;;3.05;2.47;;;14.90;62.80;;;;;;5103078;28;20255;-62
2022/12/12 10:03:12;;;;;;;3.78;2.50;;;15.00;61.70;;;;;;5103603;28;20068;-62
2022/12/12 10:05:56;;;;;;;3.78;2.35;;;15.00;61.80;;;;;;5103560;28;20035;-62
2022/12/12 10:08:45;;;;;;;3.33;2.10;;;15.00;61.60;;;;;;5103476;28;20333;-63
2022/12/12 10:14:12;;;;;;;2.83;1.92;;;15.10;61.80;;;;;;5103380;28;20049;-63
2022/12/12 10:16:39;;;;;;;3.15;2.35;;;15.00;62.40;;;;;;5103336;28;20024;-63
2022/12/12 10:19:21;;;;;;;3.15;2.67;;;14.90;62.00;;;;;;5102721;28;20095;-63
2022/12/12 10:21:52;;;;;;;3.28;2.70;;;14.90;61.90;;;;;;5103296;28;20218;-64
2022/12/12 10:24:29;;;;;;;3.28;2.58;;;14.80;62.30;;;;;;5103215;28;20031;-63
2022/12/12 10:26:56;;;;;;;2.85;2.55;;;14.90;62.10;;;;;;5103496;28;20020;-63
2022/12/12 10:29:25;;;;;;;2.72;2.40;;;14.80;62.00;;;;;;5103039;28;20038;-63
2022/12/12 10:32:00;;;;;;;;;;;14.90;62.20;;;;;;5102345;28;20062;-62
2022/12/12 10:34:46;;;;;;;3.42;2.58;;;14.90;62.10;;;;;;5101837;28;19900;-63
2022/12/12 10:37:24;;;;;;;2.15;1.58;;;14.90;61.80;;;;;;5103006;28;20208;-62
2022/12/12 10:40:08;;;;;;;2.75;2.30;;;15.00;62.30;;;;;;5102856;28;20020;-64
2022/12/12 10:42:52;;;;;;;3.10;2.28;;;15.10;62.70;;;;;;5101686;28;20032;-62
2022/12/12 10:45:49;;;;;;;2.88;2.13;;;15.00;63.10;;;;;;5101561;28;20021;-62
2022/12/12 10:48:14;;;;;;;2.45;2.13;;;14.90;62.70;;;;;;5102819;28;20083;-63
2022/12/12 10:50:46;;;;;;;1.92;1.77;;;14.90;62.40;;;;;;5102762;28;20070;-62
2022/12/12 10:53:12;;;;;;;3.83;2.42;;;15.00;62.40;;;;;;5102677;28;20141;-63
2022/12/12 10:55:42;;;;;;;3.20;2.20;;;15.10;62.50;;;;;;5102627;28;20041;-63
2022/12/12 10:58:07;;;;;;;2.88;2.30;;;15.10;62.20;;;;;;5102543;28;20253;-63
2022/12/12 11:00:41;;;;;;;3.38;2.38;;;15.10;61.90;;;;;;5102626;28;20018;-62
2022/12/12 11:03:30;;;;;;;3.67;2.47;;;15.00;63.10;;;;;;5102634;28;20039;-63
2022/12/12 11:05:57;;;;;;;2.70;1.95;;;14.90;63.60;;;;;;5101495;28;20189;-64
2022/12/12 11:08:28;;;;;;;2.22;2.03;;;14.80;63.20;;;;;;5102524;28;20032;-63
2022/12/12 11:11:09;;;;;;;3.45;2.78;;;14.80;63.40;;;;;;5102155;28;20016;-62
2022/12/12 11:13:45;;;;;;;4.00;2.38;;;14.80;63.60;;;;;;5102353;28;20043;-62
2022/12/12 11:16:26;;;;;;;2.60;2.00;;;14.80;62.30;;;;;;5101967;28;20065;-62
2022/12/12 11:19:16;;;;;;;3.00;2.30;;;14.70;62.90;;;;;;5101982;28;20051;-64
2022/12/12 11:21:44;;;;;;;2.60;2.22;;;14.70;62.50;;;;;;5102595;28;20168;-63
2022/12/12 11:24:16;;;;;;;3.83;2.90;;;14.60;62.30;;;;;;5102262;28;20012;-62
2022/12/12 11:27:04;;;;;;;2.55;2.20;;;14.60;62.50;;;;;;5102303;28;20024;-62
2022/12/12 11:29:38;;;;;;;2.90;2.57;;;14.60;62.50;;;;;;5102269;28;20310;-62
2022/12/12 11:32:11;;;;;;;2.80;2.20;;;14.60;62.60;;;;;;5102335;28;20031;-62
2022/12/12 11:34:39;;;;;;;2.50;2.05;;;14.70;62.20;;;;;;5102238;28;20024;-63
2022/12/12 11:37:05;;;;;;;4.00;2.38;;;14.80;62.30;;;;;;5102234;28;20081;-62
2022/12/12 11:39:43;;;;;;;3.13;2.35;;;14.70;62.50;;;;;;5102044;28;20027;-63
2022/12/12 11:42:12;;;;;;;2.95;2.25;;;14.80;62.30;;;;;;5102222;28;20020;-64
2022/12/12 11:44:39;;;;;;;3.17;1.80;;;14.70;62.40;;;;;;5102093;28;20039;-63
2022/12/12 11:47:37;;;;;;;2.58;2.08;;;14.80;63.10;;;;;;5102115;28;20238;-65
2022/12/12 11:50:15;;;;;;;2.13;1.88;;;14.70;62.00;;;;;;5102075;28;20020;-64
2022/12/12 11:52:41;;;;;;;;;;;14.80;61.70;;;;;;5102566;28;20055;-63
2022/12/12 11:55:14;;;;;;;2.65;2.00;;;14.80;62.30;;;;;;5102088;28;19900;-62
2022/12/12 11:57:53;;;;;;;2.88;2.15;;;14.80;62.50;;;;;;5101993;28;20246;-63
2022/12/12 12:00:21;;;;;;;3.85;2.28;;;14.90;61.70;;;;;;5101988;28;20039;-64
2022/12/12 12:03:07;;;;;;;3.28;2.42;;;14.80;61.90;;;;;;5101979;28;20079;-63
2022/12/12 12:05:54;;;;;;;3.05;2.20;;;14.70;62.00;;;;;;5101949;28;20242;-63
2022/12/12 12:08:47;;;;;;;3.33;2.58;;;14.60;62.10;;;;;;5101868;28;20020;-64
2022/12/12 12:11:38;;;;;;;2.33;2.10;;;14.60;62.30;;;;;;5101907;28;20023;-63
2022/12/12 12:14:07;;;;;;;2.53;2.03;;;14.60;62.30;;;;;;5101849;28;20020;-62
2022/12/12 12:16:59;;;;;;;2.95;1.98;;;14.60;63.00;;;;;;5101762;28;20020;-62
2022/12/12 12:19:37;;;;;;;3.00;2.20;;;14.60;63.20;;;;;;5101566;28;20086;-62
2022/12/12 12:22:03;;;;;;;2.40;2.20;;;14.70;62.20;;;;;;5101975;28;20324;-65
2022/12/12 12:24:50;;;;;;;2.58;2.00;;;14.60;62.00;;;;;;5105579;28;20077;-63
2022/12/12 12:27:42;;;;;;;3.33;2.60;;;14.60;61.90;;;;;;5105564;28;20015;-63
2022/12/12 12:30:20;;;;;;;2.88;2.40;;;14.60;62.00;;;;;;5105497;28;20311;-65
2022/12/12 12:33:07;;;;;;;2.30;2.10;;;14.60;61.90;;;;;;5105371;28;20020;-62
2022/12/12 12:35:55;;;;;;;2.00;1.80;;;14.50;62.30;;;;;;5105363;28;20028;-63
2022/12/12 12:38:48;;;;;;;2.73;2.23;;;14.50;62.10;;;;;;5105195;28;20102;-62
2022/12/12 12:41:43;;;;;;;2.58;2.20;;;14.60;63.00;;;;;;5105195;28;20016;-63
2022/12/12 12:44:32;;;;;;;2.20;2.00;;;14.50;62.60;;;;;;5105191;28;20022;-62
2022/12/12 12:47:17;;;;;;;3.03;2.50;;;14.50;62.50;;;;;;5105079;28;20016;-63
2022/12/12 12:49:49;;;;;;;2.67;2.22;;;14.40;62.40;;;;;;5105075;28;20031;-64
2022/12/12 12:52:33;;;;;;;2.25;2.00;;;14.40;62.60;;;;;;5105034;28;20024;-64
2022/12/12 12:55:00;;;;;;;4.15;2.53;;;14.40;62.60;;;;;;5104994;28;20027;-64
2022/12/12 12:57:31;;;;;;;3.05;2.10;;;14.40;62.60;;;;;;5104883;28;20027;-62
2022/12/12 13:00:03;;;;;;;3.55;1.98;;;14.50;62.50;;;;;;5104775;28;20026;-64
2022/12/12 13:02:55;;;;;;;2.75;2.35;;;14.50;62.90;;;;;;5104845;28;20020;-62
2022/12/12 13:05:26;;;;;;;3.58;2.20;;;14.50;63.60;;;;;;5104707;28;20217;-62
2022/12/12 13:08:11;;;;;;;2.20;2.00;;;14.60;63.70;;;;;;5104781;28;20027;-64
2022/12/12 13:10:44;;;;;;;1.67;1.58;;;14.70;63.30;;;;;;5104622;28;20303;-63
2022/12/12 13:13:25;;;;;;;2.45;1.98;;;14.80;63.00;;;;;;5103379;28;20089;-63
2022/12/12 13:16:13;;;;;;;1.90;1.58;;;14.80;63.20;;;;;;5104533;28;20028;-64
2022/12/12 13:18:43;;;;;;;2.90;2.05;;;14.70;63.50;;;;;;5097196;28;20104;-63
2022/12/12 13:21:34;;;;;;;2.10;1.90;;;14.70;63.30;;;;;;5104451;28;20039;-63
2022/12/12 13:24:30;;;;;;;2.60;2.05;;;14.70;63.10;;;;;;5104391;28;20023;-63
2022/12/12 13:27:20;;;;;;;2.42;1.95;;;14.60;62.80;;;;;;5104371;28;20020;-64
2022/12/12 13:30:07;;;;;;;2.30;2.10;;;14.50;62.40;;;;;;5104321;28;20012;-62